sensor_id;sensor_type;location;lat;lon;timestamp;pressure;altitude;pressure_sealevel;temperature;humidity
44255;BME280;29933;47.226;15.734;2022-11-15T00:00:28;96501.53;;;5.75;100.00
44255;BME280;29933;47.226;15.734;2022-11-15T00:02:54;96491.56;;;5.76;100.00
44255;BME280;29933;47.226;15.734;2022-11-15T00:05:20;96507.00;;;5.79;100.00
44255;BME280;29933;47.226;15.734;2022-11-15T00:07:46;96501.78;;;5.86;100.00
44255;BME280;29933;47.226;15.734;2022-11-15T00:10:12;96504.97;;;5.92;100.00
44255;BME280;29933;47.226;15.734;2022-11-15T00:12:38;96500.47;;;5.96;100.00
44255;BME280;29933;47.226;15.734;2022-11-15T00:15:04;96492.13;;;6.01;100.00
44255;BME280;29933;47.226;15.734;2022-11-15T00:17:30;96494.53;;;6.06;100.00
44255;BME280;29933;47.226;15.734;2022-11-15T00:19:56;96498.88;;;6.11;100.00
44255;BME280;29933;47.226;15.734;2022-11-15T00:22:21;96497.78;;;6.15;100.00
44255;BME280;29933;47.226;15.734;2022-11-15T00:24:47;96497.09;;;6.19;100.00
44255;BME280;29933;47.226;15.734;2022-11-15T00:27:13;96498.38;;;6.25;100.00
44255;BME280;29933;47.226;15.734;2022-11-15T00:29:39;96491.13;;;6.29;100.00
44255;BME280;29933;47.226;15.734;2022-11-15T00:32:11;96483.47;;;6.31;100.00
44255;BME280;29933;47.226;15.734;2022-11-15T00:34:37;96495.09;;;6.35;100.00
44255;BME280;29933;47.226;15.734;2022-11-15T00:37:03;96494.38;;;6.38;100.00
44255;BME280;29933;47.226;15.734;2022-11-15T00:39:29;96490.22;;;6.41;100.00
44255;BME280;29933;47.226;15.734;2022-11-15T00:41:54;96495.25;;;6.42;100.00
44255;BME280;29933;47.226;15.734;2022-11-15T00:44:20;96499.91;;;6.45;100.00
44255;BME280;29933;47.226;15.734;2022-11-15T00:46:46;96491.13;;;6.48;100.00
44255;BME280;29933;47.226;15.734;2022-11-15T00:49:11;96486.56;;;6.53;100.00
44255;BME280;29933;47.226;15.734;2022-11-15T00:51:37;96483.94;;;6.56;100.00
44255;BME280;29933;47.226;15.734;2022-11-15T00:54:03;96486.28;;;6.58;100.00
44255;BME280;29933;47.226;15.734;2022-11-15T00:56:29;96478.59;;;6.60;100.00
44255;BME280;29933;47.226;15.734;2022-11-15T00:58:54;96476.31;;;6.62;100.00
44255;BME280;29933;47.226;15.734;2022-11-15T01:01:20;96480.25;;;6.64;100.00
44255;BME280;29933;47.226;15.734;2022-11-15T01:03:46;96470.22;;;6.65;100.00
44255;BME280;29933;47.226;15.734;2022-11-15T01:06:11;96471.78;;;6.66;100.00
44255;BME280;29933;47.226;15.734;2022-11-15T01:08:40;96471.78;;;6.66;100.00
44255;BME280;29933;47.226;15.734;2022-11-15T01:11:08;96462.56;;;6.67;100.00
44255;BME280;29933;47.226;15.734;2022-11-15T01:13:35;96453.28;;;6.68;100.00
44255;BME280;29933;47.226;15.734;2022-11-15T01:16:06;96452.16;;;6.69;100.00
44255;BME280;29933;47.226;15.734;2022-11-15T01:18:32;96450.25;;;6.70;100.00
44255;BME280;29933;47.226;15.734;2022-11-15T01:20:58;96442.94;;;6.70;100.00
44255;BME280;29933;47.226;15.734;2022-11-15T01:23:24;96432.13;;;6.70;100.00
44255;BME280;29933;47.226;15.734;2022-11-15T01:25:49;96435.97;;;6.69;100.00
44255;BME280;29933;47.226;15.734;2022-11-15T01:28:15;96431.00;;;6.71;100.00
44255;BME280;29933;47.226;15.734;2022-11-15T01:30:41;96431.75;;;6.72;100.00
44255;BME280;29933;47.226;15.734;2022-11-15T01:33:06;96424.47;;;6.72;100.00
44255;BME280;29933;47.226;15.734;2022-11-15T01:35:32;96432.56;;;6.72;100.00
44255;BME280;29933;47.226;15.734;2022-11-15T01:37:58;96427.16;;;6.72;100.00
44255;BME280;29933;47.226;15.734;2022-11-15T01:40:23;96422.91;;;6.71;100.00
44255;BME280;29933;47.226;15.734;2022-11-15T01:42:50;96427.53;;;6.71;100.00
44255;BME280;29933;47.226;15.734;2022-11-15T01:45:16;96420.91;;;6.68;100.00
44255;BME280;29933;47.226;15.734;2022-11-15T01:47:47;96423.59;;;6.68;100.00
44255;BME280;29933;47.226;15.734;2022-11-15T01:50:17;96422.84;;;6.68;100.00
44255;BME280;29933;47.226;15.734;2022-11-15T01:52:45;96422.47;;;6.69;100.00
44255;BME280;29933;47.226;15.734;2022-11-15T01:55:14;96415.88;;;6.67;100.00
44255;BME280;29933;47.226;15.734;2022-11-15T01:57:41;96411.63;;;6.65;100.00
44255;BME280;29933;47.226;15.734;2022-11-15T02:00:08;96406.22;;;6.65;100.00
44255;BME280;29933;47.226;15.734;2022-11-15T02:02:34;96408.16;;;6.65;100.00
44255;BME280;29933;47.226;15.734;2022-11-15T02:05:01;96404.31;;;6.66;100.00
44255;BME280;29933;47.226;15.734;2022-11-15T02:07:27;96407.00;;;6.66;100.00
44255;BME280;29933;47.226;15.734;2022-11-15T02:09:53;96390.81;;;6.66;100.00
44255;BME280;29933;47.226;15.734;2022-11-15T02:12:20;96397.78;;;6.67;100.00
44255;BME280;29933;47.226;15.734;2022-11-15T02:14:49;96397.41;;;6.69;100.00
44255;BME280;29933;47.226;15.734;2022-11-15T02:23:30;96384.75;;;6.73;100.00
44255;BME280;29933;47.226;15.734;2022-11-15T02:34:21;96375.34;;;6.63;100.00
44255;BME280;29933;47.226;15.734;2022-11-15T02:42:23;96373.19;;;6.72;100.00
44255;BME280;29933;47.226;15.734;2022-11-15T02:45:10;96376.28;;;6.74;100.00
44255;BME280;29933;47.226;15.734;2022-11-15T02:47:43;96377.84;;;6.75;100.00
44255;BME280;29933;47.226;15.734;2022-11-15T02:50:11;96386.25;;;6.70;100.00
44255;BME280;29933;47.226;15.734;2022-11-15T02:52:38;96378.53;;;6.69;100.00
44255;BME280;29933;47.226;15.734;2022-11-15T02:55:04;96387.38;;;6.69;100.00
44255;BME280;29933;47.226;15.734;2022-11-15T02:57:51;96375.34;;;6.63;100.00
44255;BME280;29933;47.226;15.734;2022-11-15T03:00:19;96389.06;;;6.54;100.00
44255;BME280;29933;47.226;15.734;2022-11-15T03:05:41;96396.81;;;6.56;100.00
44255;BME280;29933;47.226;15.734;2022-11-15T03:11:17;96383.38;;;6.59;100.00
44255;BME280;29933;47.226;15.734;2022-11-15T03:13:53;96380.34;;;6.61;100.00
44255;BME280;29933;47.226;15.734;2022-11-15T03:19:06;96372.94;;;6.58;100.00
44255;BME280;29933;47.226;15.734;2022-11-15T03:21:33;96372.94;;;6.58;100.00
44255;BME280;29933;47.226;15.734;2022-11-15T03:24:01;96365.22;;;6.56;100.00
44255;BME280;29933;47.226;15.734;2022-11-15T03:26:28;96359.75;;;6.53;100.00
44255;BME280;29933;47.226;15.734;2022-11-15T03:28:57;96357.34;;;6.47;100.00
44255;BME280;29933;47.226;15.734;2022-11-15T03:31:26;96359.28;;;6.47;100.00
44255;BME280;29933;47.226;15.734;2022-11-15T03:34:23;96362.31;;;6.45;100.00
44255;BME280;29933;47.226;15.734;2022-11-15T03:36:51;96357.66;;;6.42;100.00
44255;BME280;29933;47.226;15.734;2022-11-15T03:39:18;96358.03;;;6.41;100.00
44255;BME280;29933;47.226;15.734;2022-11-15T03:42:22;96349.50;;;6.39;100.00
44255;BME280;29933;47.226;15.734;2022-11-15T03:44:59;96337.91;;;6.38;100.00
44255;BME280;29933;47.226;15.734;2022-11-15T03:47:51;96346.00;;;6.38;100.00
44255;BME280;29933;47.226;15.734;2022-11-15T03:50:19;96343.31;;;6.38;100.00
44255;BME280;29933;47.226;15.734;2022-11-15T03:52:47;96343.69;;;6.37;100.00
44255;BME280;29933;47.226;15.734;2022-11-15T03:55:16;96344.41;;;6.34;100.00
44255;BME280;29933;47.226;15.734;2022-11-15T03:57:42;96337.81;;;6.31;100.00
44255;BME280;29933;47.226;15.734;2022-11-15T04:00:09;96338.53;;;6.28;100.00
44255;BME280;29933;47.226;15.734;2022-11-15T04:02:35;96335.41;;;6.26;100.00
44255;BME280;29933;47.226;15.734;2022-11-15T04:05:01;96331.16;;;6.25;100.00
44255;BME280;29933;47.226;15.734;2022-11-15T04:07:26;96326.13;;;6.23;100.00
44255;BME280;29933;47.226;15.734;2022-11-15T04:09:52;96332.28;;;6.24;100.00
44255;BME280;29933;47.226;15.734;2022-11-15T04:12:35;96325.75;;;6.25;100.00
44255;BME280;29933;47.226;15.734;2022-11-15T04:15:08;96316.53;;;6.26;100.00
44255;BME280;29933;47.226;15.734;2022-11-15T04:20:04;96308.44;;;6.26;100.00
44255;BME280;29933;47.226;15.734;2022-11-15T04:22:52;96311.47;;;6.24;100.00
44255;BME280;29933;47.226;15.734;2022-11-15T04:25:36;96303.63;;;6.15;100.00
44255;BME280;29933;47.226;15.734;2022-11-15T04:28:02;96296.97;;;6.09;100.00
44255;BME280;29933;47.226;15.734;2022-11-15T04:30:28;96307.66;;;6.02;100.00
44255;BME280;29933;47.226;15.734;2022-11-15T04:32:53;96306.38;;;5.96;100.00
44255;BME280;29933;47.226;15.734;2022-11-15T04:35:19;96294.31;;;5.90;100.00
44255;BME280;29933;47.226;15.734;2022-11-15T04:37:45;96288.41;;;5.84;100.00
44255;BME280;29933;47.226;15.734;2022-11-15T04:40:11;96300.25;;;5.79;100.00
44255;BME280;29933;47.226;15.734;2022-11-15T04:42:36;96303.25;;;5.74;100.00
44255;BME280;29933;47.226;15.734;2022-11-15T04:45:02;96298.16;;;5.69;100.00
44255;BME280;29933;47.226;15.734;2022-11-15T04:47:28;96301.88;;;5.61;100.00
44255;BME280;29933;47.226;15.734;2022-11-15T04:49:54;96298.22;;;5.53;100.00
44255;BME280;29933;47.226;15.734;2022-11-15T04:52:20;96303.53;;;5.49;100.00
44255;BME280;29933;47.226;15.734;2022-11-15T04:54:46;96303.13;;;5.47;100.00
44255;BME280;29933;47.226;15.734;2022-11-15T04:57:12;96302.69;;;5.45;100.00
44255;BME280;29933;47.226;15.734;2022-11-15T04:59:37;96298.03;;;5.42;100.00
44255;BME280;29933;47.226;15.734;2022-11-15T05:02:03;96292.22;;;5.40;100.00
44255;BME280;29933;47.226;15.734;2022-11-15T05:04:29;96292.22;;;5.40;100.00
44255;BME280;29933;47.226;15.734;2022-11-15T05:06:54;96292.22;;;5.40;100.00
44255;BME280;29933;47.226;15.734;2022-11-15T05:09:20;96291.78;;;5.38;100.00
44255;BME280;29933;47.226;15.734;2022-11-15T05:11:46;96291.38;;;5.36;100.00
44255;BME280;29933;47.226;15.734;2022-11-15T05:14:12;96297.44;;;5.33;100.00
44255;BME280;29933;47.226;15.734;2022-11-15T05:16:38;96285.56;;;5.34;100.00
44255;BME280;29933;47.226;15.734;2022-11-15T05:19:04;96285.13;;;5.32;100.00
44255;BME280;29933;47.226;15.734;2022-11-15T05:21:30;96287.41;;;5.30;100.00
44255;BME280;29933;47.226;15.734;2022-11-15T05:23:56;96290.88;;;5.30;100.00
44255;BME280;29933;47.226;15.734;2022-11-15T05:26:22;96282.03;;;5.30;100.00
44255;BME280;29933;47.226;15.734;2022-11-15T05:28:55;96286.69;;;5.33;100.00
44255;BME280;29933;47.226;15.734;2022-11-15T05:31:22;96283.28;;;5.36;100.00
44255;BME280;29933;47.226;15.734;2022-11-15T05:33:48;96283.28;;;5.36;100.00
44255;BME280;29933;47.226;15.734;2022-11-15T05:36:37;96278.31;;;5.38;100.00
44255;BME280;29933;47.226;15.734;2022-11-15T05:39:05;96278.03;;;5.43;100.00
44255;BME280;29933;47.226;15.734;2022-11-15T05:41:37;96280.78;;;5.47;100.00
44255;BME280;29933;47.226;15.734;2022-11-15T05:44:06;96286.25;;;5.50;100.00
44255;BME280;29933;47.226;15.734;2022-11-15T05:46:33;96277.03;;;5.51;100.00
44255;BME280;29933;47.226;15.734;2022-11-15T05:48:59;96281.72;;;5.55;100.00
44255;BME280;29933;47.226;15.734;2022-11-15T05:51:25;96282.56;;;5.59;100.00
44255;BME280;29933;47.226;15.734;2022-11-15T05:53:52;96285.69;;;5.61;100.00
44255;BME280;29933;47.226;15.734;2022-11-15T05:56:21;96288.81;;;5.63;100.00
44255;BME280;29933;47.226;15.734;2022-11-15T05:58:46;96286.53;;;5.65;100.00
44255;BME280;29933;47.226;15.734;2022-11-15T06:01:12;96283.06;;;5.64;100.00
44255;BME280;29933;47.226;15.734;2022-11-15T06:03:38;96278.88;;;5.67;100.00
44255;BME280;29933;47.226;15.734;2022-11-15T06:06:04;96289.63;;;5.67;100.00
44255;BME280;29933;47.226;15.734;2022-11-15T06:08:29;96295.00;;;5.63;100.00
44255;BME280;29933;47.226;15.734;2022-11-15T06:10:55;96288.09;;;5.66;100.00
44255;BME280;29933;47.226;15.734;2022-11-15T06:13:21;96294.69;;;5.68;100.00
44255;BME280;29933;47.226;15.734;2022-11-15T06:15:46;96299.72;;;5.70;100.00
44255;BME280;29933;47.226;15.734;2022-11-15T06:18:12;96300.50;;;5.71;100.00
44255;BME280;29933;47.226;15.734;2022-11-15T06:20:38;96295.91;;;5.71;100.00
44255;BME280;29933;47.226;15.734;2022-11-15T06:23:04;96297.47;;;5.72;100.00
44255;BME280;29933;47.226;15.734;2022-11-15T06:25:30;96298.22;;;5.73;100.00
44255;BME280;29933;47.226;15.734;2022-11-15T06:27:57;96300.56;;;5.74;100.00
44255;BME280;29933;47.226;15.734;2022-11-15T06:30:24;96296.72;;;5.75;100.00
44255;BME280;29933;47.226;15.734;2022-11-15T06:32:51;96300.56;;;5.74;100.00
44255;BME280;29933;47.226;15.734;2022-11-15T06:35:17;96305.94;;;5.74;100.00
44255;BME280;29933;47.226;15.734;2022-11-15T06:37:43;96291.34;;;5.75;100.00
44255;BME280;29933;47.226;15.734;2022-11-15T06:40:09;96302.19;;;5.79;100.00
44255;BME280;29933;47.226;15.734;2022-11-15T06:42:35;96296.88;;;5.82;100.00
44255;BME280;29933;47.226;15.734;2022-11-15T06:45:01;96293.03;;;5.83;100.00
44255;BME280;29933;47.226;15.734;2022-11-15T06:47:28;96304.59;;;5.84;100.00
44255;BME280;29933;47.226;15.734;2022-11-15T06:49:53;96306.94;;;5.86;100.00
44255;BME280;29933;47.226;15.734;2022-11-15T06:52:19;96304.66;;;5.88;100.00
44255;BME280;29933;47.226;15.734;2022-11-15T06:54:45;96312.03;;;5.91;100.00
44255;BME280;29933;47.226;15.734;2022-11-15T06:57:11;96308.19;;;5.92;100.00
44255;BME280;29933;47.226;15.734;2022-11-15T06:59:36;96303.22;;;5.94;100.00
44255;BME280;29933;47.226;15.734;2022-11-15T07:02:02;96297.84;;;5.94;100.00
44255;BME280;29933;47.226;15.734;2022-11-15T07:04:28;96294.72;;;5.92;100.00
44255;BME280;29933;47.226;15.734;2022-11-15T07:06:54;96304.72;;;5.91;100.00
44255;BME280;29933;47.226;15.734;2022-11-15T07:09:20;96301.25;;;5.91;100.00
44255;BME280;29933;47.226;15.734;2022-11-15T07:11:46;96307.44;;;5.91;100.00
44255;BME280;29933;47.226;15.734;2022-11-15T07:14:11;96306.69;;;5.94;100.00
44255;BME280;29933;47.226;15.734;2022-11-15T07:16:37;96302.50;;;5.97;100.00
44255;BME280;29933;47.226;15.734;2022-11-15T07:19:03;96298.69;;;5.98;100.00
44255;BME280;29933;47.226;15.734;2022-11-15T07:21:29;96309.47;;;5.98;100.00
44255;BME280;29933;47.226;15.734;2022-11-15T07:23:55;96299.81;;;5.97;100.00
44255;BME280;29933;47.226;15.734;2022-11-15T07:26:20;96310.28;;;5.98;100.00
44255;BME280;29933;47.226;15.734;2022-11-15T07:28:46;96302.59;;;6.00;100.00
44255;BME280;29933;47.226;15.734;2022-11-15T07:31:12;96294.88;;;5.99;100.00
44255;BME280;29933;47.226;15.734;2022-11-15T07:33:38;96298.00;;;6.01;100.00
44255;BME280;29933;47.226;15.734;2022-11-15T07:36:05;96292.63;;;6.01;100.00
44255;BME280;29933;47.226;15.734;2022-11-15T07:38:32;96284.94;;;6.03;100.00
44255;BME280;29933;47.226;15.734;2022-11-15T07:40:59;96286.50;;;6.04;100.00
44255;BME280;29933;47.226;15.734;2022-11-15T07:43:25;96286.84;;;6.03;100.00
44255;BME280;29933;47.226;15.734;2022-11-15T07:45:53;96277.56;;;6.00;100.00
44255;BME280;29933;47.226;15.734;2022-11-15T07:48:19;96278.69;;;5.99;100.00
44255;BME280;29933;47.226;15.734;2022-11-15T07:50:45;96280.63;;;5.98;100.00
44255;BME280;29933;47.226;15.734;2022-11-15T07:53:11;96285.19;;;5.98;100.00
44255;BME280;29933;47.226;15.734;2022-11-15T07:55:37;96285.66;;;6.00;100.00
44255;BME280;29933;47.226;15.734;2022-11-15T07:58:06;96285.66;;;6.00;100.00
44255;BME280;29933;47.226;15.734;2022-11-15T08:00:33;96283.03;;;6.04;100.00
44255;BME280;29933;47.226;15.734;2022-11-15T08:03:13;96283.50;;;6.09;100.00
44255;BME280;29933;47.226;15.734;2022-11-15T08:05:40;96276.19;;;6.10;100.00
44255;BME280;29933;47.226;15.734;2022-11-15T08:08:07;96275.84;;;6.11;100.00
44255;BME280;29933;47.226;15.734;2022-11-15T08:10:33;96280.41;;;6.07;100.00
44255;BME280;29933;47.226;15.734;2022-11-15T08:13:06;96283.78;;;6.04;100.00
44255;BME280;29933;47.226;15.734;2022-11-15T08:15:33;96272.63;;;6.02;100.00
44255;BME280;29933;47.226;15.734;2022-11-15T08:18:00;96278.84;;;6.06;100.00
44255;BME280;29933;47.226;15.734;2022-11-15T08:20:28;96267.25;;;6.06;100.00
44255;BME280;29933;47.226;15.734;2022-11-15T08:22:58;96265.06;;;6.11;100.00
44255;BME280;29933;47.226;15.734;2022-11-15T08:25:25;96257.44;;;6.17;100.00
44255;BME280;29933;47.226;15.734;2022-11-15T08:27:55;96257.78;;;6.15;100.00
44255;BME280;29933;47.226;15.734;2022-11-15T08:30:22;96250.84;;;6.14;100.00
44255;BME280;29933;47.226;15.734;2022-11-15T08:32:49;96248.13;;;6.14;100.00
44255;BME280;29933;47.226;15.734;2022-11-15T08:35:15;96243.97;;;6.17;100.00
44255;BME280;29933;47.226;15.734;2022-11-15T08:37:41;96250.97;;;6.22;100.00
44255;BME280;29933;47.226;15.734;2022-11-15T08:40:07;96247.19;;;6.26;100.00
44255;BME280;29933;47.226;15.734;2022-11-15T08:42:32;96256.03;;;6.27;100.00
44255;BME280;29933;47.226;15.734;2022-11-15T08:44:58;96245.38;;;6.34;100.00
44255;BME280;29933;47.226;15.734;2022-11-15T08:47:24;96248.00;;;6.30;100.00
44255;BME280;29933;47.226;15.734;2022-11-15T08:49:50;96241.53;;;6.35;100.00
44255;BME280;29933;47.226;15.734;2022-11-15T08:52:16;96243.28;;;6.47;100.00
44255;BME280;29933;47.226;15.734;2022-11-15T08:54:41;96245.41;;;6.61;100.00
44255;BME280;29933;47.226;15.734;2022-11-15T08:57:07;96231.59;;;6.66;100.00
44255;BME280;29933;47.226;15.734;2022-11-15T08:59:36;96234.91;;;6.83;100.00
44255;BME280;29933;47.226;15.734;2022-11-15T09:02:03;96240.91;;;6.99;100.00
44255;BME280;29933;47.226;15.734;2022-11-15T09:04:29;96244.88;;;7.09;100.00
44255;BME280;29933;47.226;15.734;2022-11-15T09:06:55;96244.59;;;7.18;100.00
44255;BME280;29933;47.226;15.734;2022-11-15T09:09:21;96238.16;;;7.26;100.00
44255;BME280;29933;47.226;15.734;2022-11-15T09:11:46;96235.56;;;7.37;100.00
44255;BME280;29933;47.226;15.734;2022-11-15T09:14:13;96239.91;;;7.45;100.00
44255;BME280;29933;47.226;15.734;2022-11-15T09:16:39;96240.75;;;7.53;100.00
44255;BME280;29933;47.226;15.734;2022-11-15T09:19:05;96245.06;;;7.57;100.00
44255;BME280;29933;47.226;15.734;2022-11-15T09:21:31;96244.69;;;7.59;100.00
44255;BME280;29933;47.226;15.734;2022-11-15T09:23:57;96237.00;;;7.61;100.00
44255;BME280;29933;47.226;15.734;2022-11-15T09:26:23;96242.41;;;7.61;100.00
44255;BME280;29933;47.226;15.734;2022-11-15T09:28:49;96236.25;;;7.64;100.00
44255;BME280;29933;47.226;15.734;2022-11-15T09:31:14;96228.97;;;7.68;100.00
44255;BME280;29933;47.226;15.734;2022-11-15T09:33:43;96232.06;;;7.70;100.00
44255;BME280;29933;47.226;15.734;2022-11-15T09:36:10;96229.41;;;7.74;100.00
44255;BME280;29933;47.226;15.734;2022-11-15T09:38:36;96230.19;;;7.78;100.00
44255;BME280;29933;47.226;15.734;2022-11-15T09:49:02;96214.88;;;7.93;100.00
44255;BME280;29933;47.226;15.734;2022-11-15T09:51:39;96209.16;;;8.02;100.00
44255;BME280;29933;47.226;15.734;2022-11-15T09:54:43;96208.50;;;8.12;100.00
44255;BME280;29933;47.226;15.734;2022-11-15T09:57:14;96201.97;;;8.20;100.00
44255;BME280;29933;47.226;15.734;2022-11-15T10:00:04;96195.88;;;8.31;100.00
44255;BME280;29933;47.226;15.734;2022-11-15T10:02:50;96197.44;;;8.35;100.00
44255;BME280;29933;47.226;15.734;2022-11-15T10:05:22;96187.06;;;8.41;100.00
44255;BME280;29933;47.226;15.734;2022-11-15T10:08:11;96181.41;;;8.64;100.00
44255;BME280;29933;47.226;15.734;2022-11-15T10:10:43;96176.16;;;9.00;100.00
44255;BME280;29933;47.226;15.734;2022-11-15T10:13:16;96174.31;;;9.19;100.00
44255;BME280;29933;47.226;15.734;2022-11-15T10:15:46;96163.91;;;9.43;100.00
44255;BME280;29933;47.226;15.734;2022-11-15T10:18:18;96163.16;;;9.56;100.00
44255;BME280;29933;47.226;15.734;2022-11-15T10:20:54;96154.69;;;9.72;100.00
44255;BME280;29933;47.226;15.734;2022-11-15T10:23:23;96148.88;;;9.92;100.00
44255;BME280;29933;47.226;15.734;2022-11-15T10:25:58;96148.09;;;9.95;100.00
44255;BME280;29933;47.226;15.734;2022-11-15T10:28:31;96141.13;;;9.87;100.00
44255;BME280;29933;47.226;15.734;2022-11-15T10:30:59;96135.31;;;9.78;100.00
44255;BME280;29933;47.226;15.734;2022-11-15T10:38:53;96113.97;;;9.47;100.00
44255;BME280;29933;47.226;15.734;2022-11-15T10:41:29;96108.16;;;9.45;100.00
44255;BME280;29933;47.226;15.734;2022-11-15T10:46:47;96098.88;;;9.53;100.00
44255;BME280;29933;47.226;15.734;2022-11-15T10:49:18;96089.59;;;9.51;100.00
44255;BME280;29933;47.226;15.734;2022-11-15T10:54:29;96083.38;;;9.50;100.00
44255;BME280;29933;47.226;15.734;2022-11-15T10:56:58;96078.75;;;9.54;100.00
44255;BME280;29933;47.226;15.734;2022-11-15T10:59:30;96065.56;;;9.60;100.00
44255;BME280;29933;47.226;15.734;2022-11-15T11:01:57;96060.16;;;9.64;100.00
44255;BME280;29933;47.226;15.734;2022-11-15T11:04:23;96050.06;;;9.68;100.00
44255;BME280;29933;47.226;15.734;2022-11-15T11:06:57;96049.72;;;9.69;100.00
44255;BME280;29933;47.226;15.734;2022-11-15T11:11:58;96040.00;;;9.68;100.00
44255;BME280;29933;47.226;15.734;2022-11-15T11:14:34;96040.00;;;9.68;100.00
44255;BME280;29933;47.226;15.734;2022-11-15T11:19:52;96032.28;;;9.70;100.00
44255;BME280;29933;47.226;15.734;2022-11-15T11:33:36;96010.97;;;9.40;100.00
44255;BME280;29933;47.226;15.734;2022-11-15T11:36:21;95997.81;;;9.35;100.00
44255;BME280;29933;47.226;15.734;2022-11-15T11:38:58;95998.22;;;9.30;100.00
44255;BME280;29933;47.226;15.734;2022-11-15T11:49:29;95990.47;;;9.17;100.00
44255;BME280;29933;47.226;15.734;2022-11-15T11:54:45;95991.25;;;9.11;100.00
44255;BME280;29933;47.226;15.734;2022-11-15T11:57:46;95997.41;;;9.00;100.00
44255;BME280;29933;47.226;15.734;2022-11-15T12:00:18;95986.94;;;8.91;100.00
44255;BME280;29933;47.226;15.734;2022-11-15T12:02:50;95981.91;;;8.86;100.00
44255;BME280;29933;47.226;15.734;2022-11-15T12:05:35;95979.19;;;8.83;100.00
44255;BME280;29933;47.226;15.734;2022-11-15T12:10:41;95971.06;;;8.79;100.00
44255;BME280;29933;47.226;15.734;2022-11-15T12:13:13;95969.88;;;8.73;100.00
44255;BME280;29933;47.226;15.734;2022-11-15T12:15:47;95964.84;;;8.68;100.00
44255;BME280;29933;47.226;15.734;2022-11-15T12:18:15;95962.13;;;8.64;100.00
44255;BME280;29933;47.226;15.734;2022-11-15T12:20:56;95952.47;;;8.59;100.00
44255;BME280;29933;47.226;15.734;2022-11-15T12:23:26;95948.59;;;8.57;100.00
44255;BME280;29933;47.226;15.734;2022-11-15T12:28:34;95951.69;;;8.59;100.00
44255;BME280;29933;47.226;15.734;2022-11-15T12:33:34;95950.16;;;8.51;100.00
44255;BME280;29933;47.226;15.734;2022-11-15T12:36:08;95951.28;;;8.46;100.00
44255;BME280;29933;47.226;15.734;2022-11-15T12:41:15;95938.16;;;8.48;100.00
44255;BME280;29933;47.226;15.734;2022-11-15T12:43:42;95932.75;;;8.52;100.00
44255;BME280;29933;47.226;15.734;2022-11-15T12:46:58;95928.50;;;8.51;100.00
44255;BME280;29933;47.226;15.734;2022-11-15T12:59:54;95927.63;;;8.29;100.00
44255;BME280;29933;47.226;15.734;2022-11-15T13:02:31;95924.16;;;8.24;100.00
44255;BME280;29933;47.226;15.734;2022-11-15T13:22:44;95910.97;;;8.12;100.00
44255;BME280;29933;47.226;15.734;2022-11-15T13:35:52;95904.75;;;8.04;100.00
44255;BME280;29933;47.226;15.734;2022-11-15T13:38:30;95913.63;;;8.01;100.00
44255;BME280;29933;47.226;15.734;2022-11-15T13:40:58;95908.19;;;7.98;100.00
44255;BME280;29933;47.226;15.734;2022-11-15T13:43:29;95902.03;;;7.97;100.00
44255;BME280;29933;47.226;15.734;2022-11-15T13:46:17;95904.31;;;7.95;100.00
44255;BME280;29933;47.226;15.734;2022-11-15T13:48:44;95897.34;;;7.90;100.00
44255;BME280;29933;47.226;15.734;2022-11-15T13:53:48;95883.06;;;7.90;100.00
44255;BME280;29933;47.226;15.734;2022-11-15T13:56:16;95882.66;;;7.88;100.00
44255;BME280;29933;47.226;15.734;2022-11-15T13:58:42;95874.53;;;7.84;100.00
44255;BME280;29933;47.226;15.734;2022-11-15T14:01:13;95880.34;;;7.83;100.00
44255;BME280;29933;47.226;15.734;2022-11-15T14:04:06;95872.63;;;7.85;100.00
44255;BME280;29933;47.226;15.734;2022-11-15T14:06:32;95871.81;;;7.81;100.00
44255;BME280;29933;47.226;15.734;2022-11-15T14:11:27;95881.47;;;7.74;100.00
44255;BME280;29933;47.226;15.734;2022-11-15T14:19:00;95874.09;;;7.71;100.00
44255;BME280;29933;47.226;15.734;2022-11-15T14:21:26;95882.59;;;7.70;100.00
44255;BME280;29933;47.226;15.734;2022-11-15T14:23:52;95877.59;;;7.68;100.00
44255;BME280;29933;47.226;15.734;2022-11-15T14:26:34;95871.00;;;7.66;100.00
44255;BME280;29933;47.226;15.734;2022-11-15T14:29:25;95872.91;;;7.65;100.00
44255;BME280;29933;47.226;15.734;2022-11-15T14:31:52;95859.41;;;7.65;100.00
44255;BME280;29933;47.226;15.734;2022-11-15T14:34:18;95862.50;;;7.67;100.00
44255;BME280;29933;47.226;15.734;2022-11-15T14:36:44;95844.75;;;7.66;100.00
44255;BME280;29933;47.226;15.734;2022-11-15T14:39:09;95860.19;;;7.66;100.00
44255;BME280;29933;47.226;15.734;2022-11-15T14:41:36;95849.38;;;7.66;100.00
44255;BME280;29933;47.226;15.734;2022-11-15T14:44:04;95847.03;;;7.64;100.00
44255;BME280;29933;47.226;15.734;2022-11-15T14:46:30;95849.38;;;7.62;100.00
44255;BME280;29933;47.226;15.734;2022-11-15T14:48:56;95843.56;;;7.60;100.00
44255;BME280;29933;47.226;15.734;2022-11-15T14:51:22;95854.38;;;7.60;100.00
44255;BME280;29933;47.226;15.734;2022-11-15T14:53:48;95851.25;;;7.58;100.00
44255;BME280;29933;47.226;15.734;2022-11-15T14:56:14;95848.56;;;7.58;100.00
44255;BME280;29933;47.226;15.734;2022-11-15T14:58:40;95853.19;;;7.57;100.00
44255;BME280;29933;47.226;15.734;2022-11-15T15:01:20;95850.13;;;7.59;100.00
44255;BME280;29933;47.226;15.734;2022-11-15T15:03:46;95847.81;;;7.61;100.00
44255;BME280;29933;47.226;15.734;2022-11-15T15:06:12;95853.59;;;7.56;100.00
44255;BME280;29933;47.226;15.734;2022-11-15T15:08:40;95839.63;;;7.46;100.00
44255;BME280;29933;47.226;15.734;2022-11-15T15:11:26;95835.38;;;7.38;100.00
44255;BME280;29933;47.226;15.734;2022-11-15T15:13:53;95840.72;;;7.31;100.00
44255;BME280;29933;47.226;15.734;2022-11-15T15:16:21;95831.06;;;7.30;100.00